Lancaster, Minnesota
Current Conditions -  °F | °C
As of 9:33 PM on Saturday 22 Nov 2014 (Local Time) from KHCO Reporting Station
Clear Clear  
Wind Chill: 28°   Ceiling: Unl
Heat Index: 34°   Visibility: 10mi
Dew Point: 28°   Wind: 7mph
Humidity: 81%   Direction: 170°S
Pressure: 29.36"   Gusts: NA
Location:  48.86°N, 96.8°W
Report Text: KHCO 230333Z AUTO 17006KT 10SM CLR 01/M02 A2936 RMK AO2
Loading
Personal Weather Stations






























Interactive Weather Map New forecast layout! Learn more

10-Day Weather Forecast

Advertisements
Track Severe Weather on mobile